sensor_id;sensor_type;location;lat;lon;timestamp;P1;durP1;ratioP1;P2;durP2;ratioP2
80898;SDS011;70349;49.210;-122.932;2023-08-31T00:00:10;7.72;;;5.13;;
80898;SDS011;70349;49.210;-122.932;2023-08-31T00:02:38;6.28;;;4.60;;
80898;SDS011;70349;49.210;-122.932;2023-08-31T00:05:06;7.47;;;4.60;;
80898;SDS011;70349;49.210;-122.932;2023-08-31T00:07:32;7.05;;;4.63;;
80898;SDS011;70349;49.210;-122.932;2023-08-31T00:09:58;7.90;;;4.88;;
80898;SDS011;70349;49.210;-122.932;2023-08-31T00:12:25;5.80;;;4.20;;
80898;SDS011;70349;49.210;-122.932;2023-08-31T00:14:54;5.95;;;4.60;;
80898;SDS011;70349;49.210;-122.932;2023-08-31T00:17:23;5.18;;;3.53;;
80898;SDS011;70349;49.210;-122.932;2023-08-31T00:19:49;6.68;;;4.00;;
80898;SDS011;70349;49.210;-122.932;2023-08-31T00:22:17;6.28;;;3.92;;
80898;SDS011;70349;49.210;-122.932;2023-08-31T00:24:44;6.55;;;4.05;;
80898;SDS011;70349;49.210;-122.932;2023-08-31T00:27:10;5.78;;;3.95;;
80898;SDS011;70349;49.210;-122.932;2023-08-31T00:29:39;6.20;;;4.07;;
80898;SDS011;70349;49.210;-122.932;2023-08-31T00:32:05;7.13;;;4.65;;
80898;SDS011;70349;49.210;-122.932;2023-08-31T00:34:32;6.93;;;4.15;;
80898;SDS011;70349;49.210;-122.932;2023-08-31T00:36:58;7.05;;;4.38;;
80898;SDS011;70349;49.210;-122.932;2023-08-31T00:39:29;5.50;;;4.35;;
80898;SDS011;70349;49.210;-122.932;2023-08-31T00:41:59;7.95;;;5.03;;
80898;SDS011;70349;49.210;-122.932;2023-08-31T00:44:25;6.20;;;4.32;;
80898;SDS011;70349;49.210;-122.932;2023-08-31T00:46:52;13.13;;;8.02;;
80898;SDS011;70349;49.210;-122.932;2023-08-31T00:49:20;6.90;;;4.45;;
80898;SDS011;70349;49.210;-122.932;2023-08-31T00:51:47;6.10;;;4.28;;
80898;SDS011;70349;49.210;-122.932;2023-08-31T00:56:46;6.70;;;4.05;;
80898;SDS011;70349;49.210;-122.932;2023-08-31T00:59:19;7.63;;;4.10;;
80898;SDS011;70349;49.210;-122.932;2023-08-31T01:02:11;6.93;;;4.45;;
80898;SDS011;70349;49.210;-122.932;2023-08-31T01:04:58;5.55;;;4.10;;
80898;SDS011;70349;49.210;-122.932;2023-08-31T01:07:47;7.80;;;4.55;;
80898;SDS011;70349;49.210;-122.932;2023-08-31T01:10:29;6.55;;;4.70;;
80898;SDS011;70349;49.210;-122.932;2023-08-31T01:13:12;6.47;;;4.43;;
80898;SDS011;70349;49.210;-122.932;2023-08-31T01:15:41;7.00;;;3.83;;
80898;SDS011;70349;49.210;-122.932;2023-08-31T01:18:10;7.80;;;5.00;;
80898;SDS011;70349;49.210;-122.932;2023-08-31T01:23:55;7.55;;;4.65;;
80898;SDS011;70349;49.210;-122.932;2023-08-31T01:26:25;6.45;;;4.50;;
80898;SDS011;70349;49.210;-122.932;2023-08-31T01:28:52;6.22;;;4.28;;
80898;SDS011;70349;49.210;-122.932;2023-08-31T01:31:20;7.50;;;4.53;;
80898;SDS011;70349;49.210;-122.932;2023-08-31T01:33:47;6.88;;;4.15;;
80898;SDS011;70349;49.210;-122.932;2023-08-31T01:36:20;6.80;;;4.38;;
80898;SDS011;70349;49.210;-122.932;2023-08-31T01:38:55;8.88;;;5.43;;
80898;SDS011;70349;49.210;-122.932;2023-08-31T01:41:30;7.78;;;4.68;;
80898;SDS011;70349;49.210;-122.932;2023-08-31T01:44:04;12.35;;;6.07;;
80898;SDS011;70349;49.210;-122.932;2023-08-31T01:46:31;7.60;;;4.18;;
80898;SDS011;70349;49.210;-122.932;2023-08-31T01:48:57;7.82;;;5.90;;
80898;SDS011;70349;49.210;-122.932;2023-08-31T01:51:23;10.20;;;4.90;;
80898;SDS011;70349;49.210;-122.932;2023-08-31T01:53:50;10.68;;;5.95;;
80898;SDS011;70349;49.210;-122.932;2023-08-31T01:56:16;12.07;;;6.45;;
80898;SDS011;70349;49.210;-122.932;2023-08-31T01:58:43;6.80;;;4.72;;
80898;SDS011;70349;49.210;-122.932;2023-08-31T02:01:09;8.65;;;5.45;;
80898;SDS011;70349;49.210;-122.932;2023-08-31T02:03:35;8.70;;;5.93;;
80898;SDS011;70349;49.210;-122.932;2023-08-31T02:06:04;7.68;;;5.20;;
80898;SDS011;70349;49.210;-122.932;2023-08-31T02:08:33;7.65;;;5.38;;
80898;SDS011;70349;49.210;-122.932;2023-08-31T02:11:05;9.88;;;6.05;;
80898;SDS011;70349;49.210;-122.932;2023-08-31T02:13:33;7.90;;;5.72;;
80898;SDS011;70349;49.210;-122.932;2023-08-31T02:16:02;9.43;;;6.65;;
80898;SDS011;70349;49.210;-122.932;2023-08-31T02:18:31;10.10;;;6.85;;
80898;SDS011;70349;49.210;-122.932;2023-08-31T02:20:59;10.00;;;6.72;;
80898;SDS011;70349;49.210;-122.932;2023-08-31T02:23:25;9.05;;;6.18;;
80898;SDS011;70349;49.210;-122.932;2023-08-31T02:25:54;10.45;;;6.72;;
80898;SDS011;70349;49.210;-122.932;2023-08-31T02:30:56;9.90;;;6.28;;
80898;SDS011;70349;49.210;-122.932;2023-08-31T02:33:24;10.27;;;5.53;;
80898;SDS011;70349;49.210;-122.932;2023-08-31T02:35:53;8.57;;;5.93;;
80898;SDS011;70349;49.210;-122.932;2023-08-31T02:38:20;9.75;;;5.75;;
80898;SDS011;70349;49.210;-122.932;2023-08-31T02:40:47;9.13;;;6.38;;
80898;SDS011;70349;49.210;-122.932;2023-08-31T02:43:14;10.10;;;6.25;;
80898;SDS011;70349;49.210;-122.932;2023-08-31T02:45:40;8.43;;;6.20;;
80898;SDS011;70349;49.210;-122.932;2023-08-31T02:48:06;9.60;;;6.30;;
80898;SDS011;70349;49.210;-122.932;2023-08-31T02:50:36;9.48;;;7.28;;
80898;SDS011;70349;49.210;-122.932;2023-08-31T02:53:03;8.75;;;6.53;;
80898;SDS011;70349;49.210;-122.932;2023-08-31T02:55:35;7.60;;;5.65;;
80898;SDS011;70349;49.210;-122.932;2023-08-31T02:58:03;8.80;;;6.18;;
80898;SDS011;70349;49.210;-122.932;2023-08-31T03:00:30;10.60;;;7.32;;
80898;SDS011;70349;49.210;-122.932;2023-08-31T03:02:59;9.07;;;7.70;;
80898;SDS011;70349;49.210;-122.932;2023-08-31T03:05:25;9.27;;;7.22;;
80898;SDS011;70349;49.210;-122.932;2023-08-31T03:07:51;10.05;;;6.72;;
80898;SDS011;70349;49.210;-122.932;2023-08-31T03:10:23;9.50;;;7.22;;
80898;SDS011;70349;49.210;-122.932;2023-08-31T03:12:54;9.27;;;6.30;;
80898;SDS011;70349;49.210;-122.932;2023-08-31T03:15:23;10.35;;;6.80;;
80898;SDS011;70349;49.210;-122.932;2023-08-31T03:17:49;14.77;;;7.18;;
80898;SDS011;70349;49.210;-122.932;2023-08-31T03:20:18;9.20;;;6.65;;
80898;SDS011;70349;49.210;-122.932;2023-08-31T03:22:46;11.15;;;6.60;;
80898;SDS011;70349;49.210;-122.932;2023-08-31T03:25:13;11.77;;;7.78;;
80898;SDS011;70349;49.210;-122.932;2023-08-31T03:27:42;11.18;;;8.73;;
80898;SDS011;70349;49.210;-122.932;2023-08-31T03:30:09;11.80;;;6.63;;
80898;SDS011;70349;49.210;-122.932;2023-08-31T03:32:38;9.55;;;7.53;;
80898;SDS011;70349;49.210;-122.932;2023-08-31T03:35:04;11.10;;;8.32;;
80898;SDS011;70349;49.210;-122.932;2023-08-31T03:37:32;11.98;;;8.88;;
80898;SDS011;70349;49.210;-122.932;2023-08-31T03:40:01;10.77;;;7.55;;
80898;SDS011;70349;49.210;-122.932;2023-08-31T03:42:29;11.73;;;7.80;;
80898;SDS011;70349;49.210;-122.932;2023-08-31T03:44:55;9.75;;;7.75;;
80898;SDS011;70349;49.210;-122.932;2023-08-31T03:47:22;10.75;;;7.70;;
80898;SDS011;70349;49.210;-122.932;2023-08-31T03:49:50;10.50;;;7.25;;
80898;SDS011;70349;49.210;-122.932;2023-08-31T03:52:16;9.60;;;7.20;;
80898;SDS011;70349;49.210;-122.932;2023-08-31T03:54:42;13.60;;;7.50;;
80898;SDS011;70349;49.210;-122.932;2023-08-31T03:57:11;10.10;;;8.57;;
80898;SDS011;70349;49.210;-122.932;2023-08-31T03:59:40;10.93;;;6.30;;
80898;SDS011;70349;49.210;-122.932;2023-08-31T04:02:06;9.98;;;7.72;;
80898;SDS011;70349;49.210;-122.932;2023-08-31T04:04:32;11.10;;;6.68;;
80898;SDS011;70349;49.210;-122.932;2023-08-31T04:06:59;9.82;;;7.47;;
80898;SDS011;70349;49.210;-122.932;2023-08-31T04:09:25;9.38;;;7.82;;
80898;SDS011;70349;49.210;-122.932;2023-08-31T04:11:55;10.95;;;7.78;;
80898;SDS011;70349;49.210;-122.932;2023-08-31T04:14:21;11.40;;;7.55;;
80898;SDS011;70349;49.210;-122.932;2023-08-31T04:16:47;10.25;;;7.28;;
80898;SDS011;70349;49.210;-122.932;2023-08-31T04:19:16;8.77;;;6.05;;
80898;SDS011;70349;49.210;-122.932;2023-08-31T04:21:43;9.30;;;6.22;;
80898;SDS011;70349;49.210;-122.932;2023-08-31T04:24:09;8.35;;;5.68;;
80898;SDS011;70349;49.210;-122.932;2023-08-31T04:26:38;10.32;;;6.85;;
80898;SDS011;70349;49.210;-122.932;2023-08-31T04:29:07;9.88;;;6.43;;
80898;SDS011;70349;49.210;-122.932;2023-08-31T04:31:33;8.80;;;6.55;;
80898;SDS011;70349;49.210;-122.932;2023-08-31T04:33:59;9.45;;;7.10;;
80898;SDS011;70349;49.210;-122.932;2023-08-31T04:36:26;11.27;;;6.78;;
80898;SDS011;70349;49.210;-122.932;2023-08-31T04:38:54;8.18;;;5.78;;
80898;SDS011;70349;49.210;-122.932;2023-08-31T04:41:23;9.00;;;6.60;;
80898;SDS011;70349;49.210;-122.932;2023-08-31T04:43:50;7.68;;;5.95;;
80898;SDS011;70349;49.210;-122.932;2023-08-31T04:46:17;12.20;;;7.03;;
80898;SDS011;70349;49.210;-122.932;2023-08-31T04:48:45;9.88;;;7.50;;
80898;SDS011;70349;49.210;-122.932;2023-08-31T04:51:30;11.85;;;10.65;;
80898;SDS011;70349;49.210;-122.932;2023-08-31T04:54:07;8.45;;;7.35;;
80898;SDS011;70349;49.210;-122.932;2023-08-31T04:56:34;10.88;;;6.57;;
80898;SDS011;70349;49.210;-122.932;2023-08-31T04:59:00;9.07;;;5.97;;
80898;SDS011;70349;49.210;-122.932;2023-08-31T05:01:29;7.57;;;6.25;;
80898;SDS011;70349;49.210;-122.932;2023-08-31T05:03:55;8.05;;;5.78;;
80898;SDS011;70349;49.210;-122.932;2023-08-31T05:06:21;7.85;;;5.80;;
80898;SDS011;70349;49.210;-122.932;2023-08-31T05:08:48;9.50;;;7.22;;
80898;SDS011;70349;49.210;-122.932;2023-08-31T05:11:14;7.38;;;5.28;;
80898;SDS011;70349;49.210;-122.932;2023-08-31T05:13:41;8.63;;;5.70;;
80898;SDS011;70349;49.210;-122.932;2023-08-31T05:16:10;7.40;;;5.63;;
80898;SDS011;70349;49.210;-122.932;2023-08-31T05:18:37;7.82;;;5.85;;
80898;SDS011;70349;49.210;-122.932;2023-08-31T05:21:07;7.97;;;5.97;;
80898;SDS011;70349;49.210;-122.932;2023-08-31T05:23:34;10.68;;;9.00;;
80898;SDS011;70349;49.210;-122.932;2023-08-31T05:26:03;10.18;;;5.95;;
80898;SDS011;70349;49.210;-122.932;2023-08-31T05:28:29;9.57;;;6.43;;
80898;SDS011;70349;49.210;-122.932;2023-08-31T05:31:00;8.45;;;6.00;;
80898;SDS011;70349;49.210;-122.932;2023-08-31T05:33:28;6.72;;;5.68;;
80898;SDS011;70349;49.210;-122.932;2023-08-31T05:36:00;8.05;;;5.75;;
80898;SDS011;70349;49.210;-122.932;2023-08-31T05:38:31;7.47;;;5.15;;
80898;SDS011;70349;49.210;-122.932;2023-08-31T05:41:07;9.95;;;5.95;;
80898;SDS011;70349;49.210;-122.932;2023-08-31T05:43:35;8.50;;;6.43;;
80898;SDS011;70349;49.210;-122.932;2023-08-31T05:46:02;8.60;;;6.25;;
80898;SDS011;70349;49.210;-122.932;2023-08-31T05:48:28;8.82;;;7.43;;
80898;SDS011;70349;49.210;-122.932;2023-08-31T05:50:54;8.40;;;6.55;;
80898;SDS011;70349;49.210;-122.932;2023-08-31T05:53:21;9.02;;;5.88;;
80898;SDS011;70349;49.210;-122.932;2023-08-31T05:55:50;8.93;;;6.80;;
80898;SDS011;70349;49.210;-122.932;2023-08-31T05:58:21;9.93;;;5.60;;
80898;SDS011;70349;49.210;-122.932;2023-08-31T06:00:51;9.27;;;6.80;;
80898;SDS011;70349;49.210;-122.932;2023-08-31T06:03:17;9.57;;;6.68;;
80898;SDS011;70349;49.210;-122.932;2023-08-31T06:05:43;8.88;;;6.80;;
80898;SDS011;70349;49.210;-122.932;2023-08-31T06:08:09;8.95;;;6.90;;
80898;SDS011;70349;49.210;-122.932;2023-08-31T06:10:38;12.43;;;8.60;;
80898;SDS011;70349;49.210;-122.932;2023-08-31T06:13:07;11.20;;;7.88;;
80898;SDS011;70349;49.210;-122.932;2023-08-31T06:15:33;10.13;;;7.57;;
80898;SDS011;70349;49.210;-122.932;2023-08-31T06:18:02;7.45;;;5.82;;
80898;SDS011;70349;49.210;-122.932;2023-08-31T06:20:34;10.30;;;6.93;;
80898;SDS011;70349;49.210;-122.932;2023-08-31T06:23:05;9.73;;;6.88;;
80898;SDS011;70349;49.210;-122.932;2023-08-31T06:25:31;9.75;;;7.30;;
80898;SDS011;70349;49.210;-122.932;2023-08-31T06:27:58;8.25;;;6.43;;
80898;SDS011;70349;49.210;-122.932;2023-08-31T06:30:28;9.35;;;6.97;;
80898;SDS011;70349;49.210;-122.932;2023-08-31T06:32:57;9.10;;;6.07;;
80898;SDS011;70349;49.210;-122.932;2023-08-31T06:37:54;10.13;;;8.30;;
80898;SDS011;70349;49.210;-122.932;2023-08-31T06:40:23;12.23;;;7.40;;
80898;SDS011;70349;49.210;-122.932;2023-08-31T06:42:55;13.30;;;7.97;;
80898;SDS011;70349;49.210;-122.932;2023-08-31T06:45:21;11.23;;;7.75;;
80898;SDS011;70349;49.210;-122.932;2023-08-31T06:47:49;15.35;;;8.57;;
80898;SDS011;70349;49.210;-122.932;2023-08-31T06:50:16;15.02;;;9.60;;
80898;SDS011;70349;49.210;-122.932;2023-08-31T06:52:45;15.52;;;11.32;;
80898;SDS011;70349;49.210;-122.932;2023-08-31T06:55:14;18.42;;;11.73;;
80898;SDS011;70349;49.210;-122.932;2023-08-31T06:57:40;13.88;;;8.45;;
80898;SDS011;70349;49.210;-122.932;2023-08-31T07:00:07;11.65;;;7.88;;
80898;SDS011;70349;49.210;-122.932;2023-08-31T07:02:37;10.18;;;6.78;;
80898;SDS011;70349;49.210;-122.932;2023-08-31T07:05:07;12.57;;;8.85;;
80898;SDS011;70349;49.210;-122.932;2023-08-31T07:07:36;12.95;;;8.00;;
80898;SDS011;70349;49.210;-122.932;2023-08-31T07:10:02;10.82;;;7.55;;
80898;SDS011;70349;49.210;-122.932;2023-08-31T07:12:31;12.45;;;8.20;;
80898;SDS011;70349;49.210;-122.932;2023-08-31T07:14:57;11.23;;;7.47;;
80898;SDS011;70349;49.210;-122.932;2023-08-31T07:17:23;9.55;;;7.07;;
80898;SDS011;70349;49.210;-122.932;2023-08-31T07:19:49;12.07;;;7.88;;
80898;SDS011;70349;49.210;-122.932;2023-08-31T07:22:18;10.68;;;8.15;;
80898;SDS011;70349;49.210;-122.932;2023-08-31T07:24:44;11.93;;;7.68;;
80898;SDS011;70349;49.210;-122.932;2023-08-31T07:27:11;12.27;;;7.93;;
80898;SDS011;70349;49.210;-122.932;2023-08-31T07:29:37;14.02;;;8.90;;
80898;SDS011;70349;49.210;-122.932;2023-08-31T07:32:09;12.20;;;8.02;;
80898;SDS011;70349;49.210;-122.932;2023-08-31T07:34:35;16.88;;;10.20;;
80898;SDS011;70349;49.210;-122.932;2023-08-31T07:37:01;16.50;;;10.43;;
80898;SDS011;70349;49.210;-122.932;2023-08-31T07:39:29;15.02;;;9.35;;
80898;SDS011;70349;49.210;-122.932;2023-08-31T07:41:57;15.70;;;10.05;;
80898;SDS011;70349;49.210;-122.932;2023-08-31T07:44:24;13.68;;;9.55;;
80898;SDS011;70349;49.210;-122.932;2023-08-31T07:46:53;16.55;;;10.05;;
80898;SDS011;70349;49.210;-122.932;2023-08-31T07:49:24;18.10;;;10.65;;
80898;SDS011;70349;49.210;-122.932;2023-08-31T07:51:50;16.80;;;10.88;;
80898;SDS011;70349;49.210;-122.932;2023-08-31T07:54:25;16.33;;;10.52;;
80898;SDS011;70349;49.210;-122.932;2023-08-31T07:56:51;14.40;;;10.02;;
80898;SDS011;70349;49.210;-122.932;2023-08-31T07:59:17;15.02;;;11.38;;
80898;SDS011;70349;49.210;-122.932;2023-08-31T08:01:47;14.35;;;8.73;;
80898;SDS011;70349;49.210;-122.932;2023-08-31T08:04:13;14.45;;;9.95;;
80898;SDS011;70349;49.210;-122.932;2023-08-31T08:06:44;14.43;;;9.18;;
80898;SDS011;70349;49.210;-122.932;2023-08-31T08:09:14;13.95;;;9.27;;
80898;SDS011;70349;49.210;-122.932;2023-08-31T08:11:43;14.88;;;9.57;;
80898;SDS011;70349;49.210;-122.932;2023-08-31T08:14:14;11.45;;;7.43;;
80898;SDS011;70349;49.210;-122.932;2023-08-31T08:16:43;11.48;;;8.13;;
80898;SDS011;70349;49.210;-122.932;2023-08-31T08:19:09;11.30;;;7.75;;
80898;SDS011;70349;49.210;-122.932;2023-08-31T08:21:35;12.30;;;8.60;;
80898;SDS011;70349;49.210;-122.932;2023-08-31T08:24:02;10.95;;;8.15;;
80898;SDS011;70349;49.210;-122.932;2023-08-31T08:26:28;9.65;;;6.97;;
80898;SDS011;70349;49.210;-122.932;2023-08-31T08:28:54;10.60;;;8.15;;
80898;SDS011;70349;49.210;-122.932;2023-08-31T08:31:21;10.60;;;9.10;;
80898;SDS011;70349;49.210;-122.932;2023-08-31T08:33:49;9.45;;;6.88;;
80898;SDS011;70349;49.210;-122.932;2023-08-31T08:36:15;8.77;;;6.53;;
80898;SDS011;70349;49.210;-122.932;2023-08-31T08:38:41;8.95;;;6.03;;
80898;SDS011;70349;49.210;-122.932;2023-08-31T08:41:08;9.48;;;7.68;;
80898;SDS011;70349;49.210;-122.932;2023-08-31T08:43:35;8.35;;;7.38;;
80898;SDS011;70349;49.210;-122.932;2023-08-31T08:46:04;10.00;;;6.53;;
80898;SDS011;70349;49.210;-122.932;2023-08-31T08:48:33;9.90;;;8.85;;
80898;SDS011;70349;49.210;-122.932;2023-08-31T08:51:01;9.43;;;8.40;;
80898;SDS011;70349;49.210;-122.932;2023-08-31T08:53:33;10.95;;;7.05;;
80898;SDS011;70349;49.210;-122.932;2023-08-31T08:56:00;10.13;;;8.18;;
80898;SDS011;70349;49.210;-122.932;2023-08-31T08:58:29;8.07;;;7.28;;
80898;SDS011;70349;49.210;-122.932;2023-08-31T09:00:55;11.32;;;7.22;;
80898;SDS011;70349;49.210;-122.932;2023-08-31T09:03:25;10.63;;;7.03;;
80898;SDS011;70349;49.210;-122.932;2023-08-31T09:05:51;10.30;;;7.32;;
80898;SDS011;70349;49.210;-122.932;2023-08-31T09:08:27;10.55;;;8.57;;
80898;SDS011;70349;49.210;-122.932;2023-08-31T09:10:55;9.45;;;8.38;;
80898;SDS011;70349;49.210;-122.932;2023-08-31T09:13:28;10.48;;;7.47;;
80898;SDS011;70349;49.210;-122.932;2023-08-31T09:15:58;11.80;;;10.02;;
80898;SDS011;70349;49.210;-122.932;2023-08-31T09:18:28;11.13;;;7.95;;
80898;SDS011;70349;49.210;-122.932;2023-08-31T09:20:55;10.15;;;8.00;;
80898;SDS011;70349;49.210;-122.932;2023-08-31T09:23:22;8.85;;;7.30;;
80898;SDS011;70349;49.210;-122.932;2023-08-31T09:25:49;9.35;;;8.25;;
80898;SDS011;70349;49.210;-122.932;2023-08-31T09:28:23;12.07;;;9.05;;
80898;SDS011;70349;49.210;-122.932;2023-08-31T09:31:03;13.60;;;9.68;;
80898;SDS011;70349;49.210;-122.932;2023-08-31T09:33:36;11.57;;;8.60;;
80898;SDS011;70349;49.210;-122.932;2023-08-31T09:38:29;10.98;;;7.20;;
80898;SDS011;70349;49.210;-122.932;2023-08-31T09:41:05;10.65;;;7.72;;
80898;SDS011;70349;49.210;-122.932;2023-08-31T09:43:33;11.05;;;7.63;;
80898;SDS011;70349;49.210;-122.932;2023-08-31T09:46:03;10.48;;;8.32;;
80898;SDS011;70349;49.210;-122.932;2023-08-31T09:48:30;9.25;;;6.35;;
80898;SDS011;70349;49.210;-122.932;2023-08-31T09:50:59;10.88;;;7.75;;
80898;SDS011;70349;49.210;-122.932;2023-08-31T09:53:31;9.63;;;7.95;;
80898;SDS011;70349;49.210;-122.932;2023-08-31T09:55:57;11.20;;;9.27;;
80898;SDS011;70349;49.210;-122.932;2023-08-31T09:58:23;9.23;;;6.97;;
80898;SDS011;70349;49.210;-122.932;2023-08-31T10:00:50;10.32;;;7.80;;
80898;SDS011;70349;49.210;-122.932;2023-08-31T10:03:22;9.10;;;7.15;;
80898;SDS011;70349;49.210;-122.932;2023-08-31T10:08:15;10.93;;;7.32;;
80898;SDS011;70349;49.210;-122.932;2023-08-31T10:10:44;10.90;;;6.80;;
80898;SDS011;70349;49.210;-122.932;2023-08-31T10:13:11;12.07;;;7.72;;
80898;SDS011;70349;49.210;-122.932;2023-08-31T10:15:37;9.23;;;7.03;;
80898;SDS011;70349;49.210;-122.932;2023-08-31T10:18:07;8.80;;;7.82;;
80898;SDS011;70349;49.210;-122.932;2023-08-31T10:20:33;9.20;;;6.35;;
80898;SDS011;70349;49.210;-122.932;2023-08-31T10:23:08;10.00;;;6.85;;
80898;SDS011;70349;49.210;-122.932;2023-08-31T10:28:20;16.23;;;11.18;;
80898;SDS011;70349;49.210;-122.932;2023-08-31T10:31:00;11.30;;;8.30;;
80898;SDS011;70349;49.210;-122.932;2023-08-31T10:33:39;12.63;;;8.20;;
80898;SDS011;70349;49.210;-122.932;2023-08-31T10:36:09;11.30;;;7.55;;
80898;SDS011;70349;49.210;-122.932;2023-08-31T10:38:44;10.80;;;8.50;;
80898;SDS011;70349;49.210;-122.932;2023-08-31T10:46:34;9.93;;;6.82;;
80898;SDS011;70349;49.210;-122.932;2023-08-31T10:49:02;9.80;;;8.20;;
80898;SDS011;70349;49.210;-122.932;2023-08-31T10:54:21;9.52;;;6.57;;
80898;SDS011;70349;49.210;-122.932;2023-08-31T10:59:51;10.98;;;7.30;;
80898;SDS011;70349;49.210;-122.932;2023-08-31T11:05:18;12.85;;;8.95;;
80898;SDS011;70349;49.210;-122.932;2023-08-31T11:07:47;11.43;;;7.90;;
80898;SDS011;70349;49.210;-122.932;2023-08-31T11:10:18;10.18;;;7.55;;
80898;SDS011;70349;49.210;-122.932;2023-08-31T11:12:48;9.80;;;7.20;;
80898;SDS011;70349;49.210;-122.932;2023-08-31T11:15:23;10.05;;;7.50;;
80898;SDS011;70349;49.210;-122.932;2023-08-31T11:17:51;10.63;;;9.63;;
80898;SDS011;70349;49.210;-122.932;2023-08-31T11:20:22;9.10;;;7.38;;
80898;SDS011;70349;49.210;-122.932;2023-08-31T11:22:53;10.30;;;7.28;;
80898;SDS011;70349;49.210;-122.932;2023-08-31T11:25:20;10.77;;;7.28;;
80898;SDS011;70349;49.210;-122.932;2023-08-31T11:27:53;9.10;;;7.00;;
80898;SDS011;70349;49.210;-122.932;2023-08-31T11:30:20;11.57;;;8.55;;
80898;SDS011;70349;49.210;-122.932;2023-08-31T11:32:47;10.45;;;7.72;;
80898;SDS011;70349;49.210;-122.932;2023-08-31T11:35:15;9.00;;;7.00;;
80898;SDS011;70349;49.210;-122.932;2023-08-31T11:37:45;10.68;;;7.95;;
80898;SDS011;70349;49.210;-122.932;2023-08-31T11:40:17;12.05;;;7.53;;
80898;SDS011;70349;49.210;-122.932;2023-08-31T11:42:44;10.18;;;7.63;;
80898;SDS011;70349;49.210;-122.932;2023-08-31T11:45:11;12.88;;;9.13;;
80898;SDS011;70349;49.210;-122.932;2023-08-31T11:47:37;9.98;;;7.38;;
80898;SDS011;70349;49.210;-122.932;2023-08-31T11:50:04;10.40;;;7.22;;
80898;SDS011;70349;49.210;-122.932;2023-08-31T11:52:34;11.10;;;7.78;;
80898;SDS011;70349;49.210;-122.932;2023-08-31T11:55:00;11.07;;;6.70;;
80898;SDS011;70349;49.210;-122.932;2023-08-31T11:57:27;9.95;;;6.88;;
80898;SDS011;70349;49.210;-122.932;2023-08-31T11:59:56;9.23;;;7.00;;
80898;SDS011;70349;49.210;-122.932;2023-08-31T12:02:23;8.82;;;7.35;;
80898;SDS011;70349;49.210;-122.932;2023-08-31T12:04:49;9.85;;;7.57;;
80898;SDS011;70349;49.210;-122.932;2023-08-31T12:07:18;9.60;;;7.13;;
80898;SDS011;70349;49.210;-122.932;2023-08-31T12:09:47;10.43;;;6.80;;
80898;SDS011;70349;49.210;-122.932;2023-08-31T12:12:20;9.93;;;7.28;;
80898;SDS011;70349;49.210;-122.932;2023-08-31T12:14:54;11.88;;;8.02;;
80898;SDS011;70349;49.210;-122.932;2023-08-31T12:17:20;9.50;;;7.00;;
80898;SDS011;70349;49.210;-122.932;2023-08-31T12:19:49;9.77;;;6.97;;
80898;SDS011;70349;49.210;-122.932;2023-08-31T12:22:15;9.93;;;6.55;;
80898;SDS011;70349;49.210;-122.932;2023-08-31T12:24:41;9.52;;;6.53;;
80898;SDS011;70349;49.210;-122.932;2023-08-31T12:27:15;9.73;;;6.85;;
80898;SDS011;70349;49.210;-122.932;2023-08-31T12:29:44;9.32;;;8.25;;
80898;SDS011;70349;49.210;-122.932;2023-08-31T12:32:14;8.57;;;7.15;;
80898;SDS011;70349;49.210;-122.932;2023-08-31T12:34:40;10.68;;;6.85;;
80898;SDS011;70349;49.210;-122.932;2023-08-31T12:37:06;8.82;;;7.20;;
80898;SDS011;70349;49.210;-122.932;2023-08-31T12:39:32;8.65;;;7.32;;
80898;SDS011;70349;49.210;-122.932;2023-08-31T12:42:03;8.57;;;5.93;;
80898;SDS011;70349;49.210;-122.932;2023-08-31T12:44:30;10.00;;;7.20;;
80898;SDS011;70349;49.210;-122.932;2023-08-31T12:46:59;8.40;;;7.50;;
80898;SDS011;70349;49.210;-122.932;2023-08-31T12:49:25;10.68;;;6.88;;
80898;SDS011;70349;49.210;-122.932;2023-08-31T12:51:51;10.07;;;8.27;;
80898;SDS011;70349;49.210;-122.932;2023-08-31T12:54:17;9.60;;;7.55;;
80898;SDS011;70349;49.210;-122.932;2023-08-31T12:56:44;8.40;;;6.43;;
80898;SDS011;70349;49.210;-122.932;2023-08-31T12:59:16;10.02;;;6.75;;
80898;SDS011;70349;49.210;-122.932;2023-08-31T13:01:42;9.00;;;7.43;;
80898;SDS011;70349;49.210;-122.932;2023-08-31T13:04:08;11.07;;;8.32;;
80898;SDS011;70349;49.210;-122.932;2023-08-31T13:06:34;12.38;;;8.13;;
80898;SDS011;70349;49.210;-122.932;2023-08-31T13:09:04;12.63;;;9.02;;
80898;SDS011;70349;49.210;-122.932;2023-08-31T13:11:34;15.85;;;10.23;;
80898;SDS011;70349;49.210;-122.932;2023-08-31T13:14:00;16.48;;;10.82;;
80898;SDS011;70349;49.210;-122.932;2023-08-31T13:16:29;16.08;;;9.85;;
80898;SDS011;70349;49.210;-122.932;2023-08-31T13:18:55;15.18;;;10.25;;
80898;SDS011;70349;49.210;-122.932;2023-08-31T13:21:25;15.23;;;8.60;;
80898;SDS011;70349;49.210;-122.932;2023-08-31T13:23:51;17.10;;;9.65;;
80898;SDS011;70349;49.210;-122.932;2023-08-31T13:26:19;15.90;;;9.90;;
80898;SDS011;70349;49.210;-122.932;2023-08-31T13:28:50;13.80;;;8.88;;
80898;SDS011;70349;49.210;-122.932;2023-08-31T13:31:16;14.98;;;9.25;;
80898;SDS011;70349;49.210;-122.932;2023-08-31T13:33:43;15.18;;;10.15;;
80898;SDS011;70349;49.210;-122.932;2023-08-31T13:36:09;14.48;;;9.35;;
80898;SDS011;70349;49.210;-122.932;2023-08-31T13:38:37;15.82;;;10.27;;
80898;SDS011;70349;49.210;-122.932;2023-08-31T13:41:03;13.60;;;9.50;;
80898;SDS011;70349;49.210;-122.932;2023-08-31T13:43:33;15.02;;;9.10;;
80898;SDS011;70349;49.210;-122.932;2023-08-31T13:46:02;16.02;;;9.63;;
80898;SDS011;70349;49.210;-122.932;2023-08-31T13:48:29;14.93;;;9.32;;
80898;SDS011;70349;49.210;-122.932;2023-08-31T13:51:01;17.35;;;9.63;;
80898;SDS011;70349;49.210;-122.932;2023-08-31T13:53:27;14.35;;;9.63;;
80898;SDS011;70349;49.210;-122.932;2023-08-31T13:55:56;11.15;;;7.95;;
80898;SDS011;70349;49.210;-122.932;2023-08-31T13:58:22;9.43;;;7.28;;
80898;SDS011;70349;49.210;-122.932;2023-08-31T14:00:51;9.68;;;7.43;;
80898;SDS011;70349;49.210;-122.932;2023-08-31T14:03:20;9.35;;;6.75;;
80898;SDS011;70349;49.210;-122.932;2023-08-31T14:05:49;13.15;;;8.90;;
80898;SDS011;70349;49.210;-122.932;2023-08-31T14:08:16;11.13;;;8.13;;
80898;SDS011;70349;49.210;-122.932;2023-08-31T14:10:42;11.07;;;7.32;;
80898;SDS011;70349;49.210;-122.932;2023-08-31T14:13:08;10.77;;;8.43;;
80898;SDS011;70349;49.210;-122.932;2023-08-31T14:15:34;10.65;;;8.18;;
80898;SDS011;70349;49.210;-122.932;2023-08-31T14:18:04;10.57;;;7.90;;
80898;SDS011;70349;49.210;-122.932;2023-08-31T14:20:30;11.10;;;7.78;;
80898;SDS011;70349;49.210;-122.932;2023-08-31T14:23:00;10.55;;;7.60;;
80898;SDS011;70349;49.210;-122.932;2023-08-31T14:25:26;18.67;;;10.93;;
80898;SDS011;70349;49.210;-122.932;2023-08-31T14:27:52;18.05;;;10.90;;
80898;SDS011;70349;49.210;-122.932;2023-08-31T14:30:18;17.80;;;10.52;;
80898;SDS011;70349;49.210;-122.932;2023-08-31T14:32:44;21.77;;;14.02;;
80898;SDS011;70349;49.210;-122.932;2023-08-31T14:35:11;21.08;;;12.75;;
80898;SDS011;70349;49.210;-122.932;2023-08-31T14:37:39;24.95;;;15.43;;
80898;SDS011;70349;49.210;-122.932;2023-08-31T14:40:08;25.17;;;18.77;;